createdAt,value
2023-12-12T00:00:52.341Z,99916.31
2023-12-12T00:03:19.510Z,99920.78
2023-12-12T00:05:46.240Z,99918.97
2023-12-12T00:08:13.054Z,99923.34
2023-12-12T00:10:39.834Z,99926.91
2023-12-12T00:13:07.593Z,99926.91
2023-12-12T00:15:34.328Z,99917.97
2023-12-12T00:18:01.027Z,99919.66
2023-12-12T00:20:27.695Z,99927.75
2023-12-12T00:22:55.113Z,99938.38
2023-12-12T00:25:21.898Z,99937.44
2023-12-12T00:27:48.590Z,99949.78
2023-12-12T00:30:15.354Z,99948.81
2023-12-12T00:32:42.144Z,99952.44
2023-12-12T00:35:09.013Z,99951.59
2023-12-12T00:37:36.196Z,99953.28
2023-12-12T00:40:03.137Z,99939.97
2023-12-12T00:42:29.877Z,99938.94
2023-12-12T00:44:56.529Z,99946.09
2023-12-12T00:47:25.896Z,99954.81
2023-12-12T00:49:55.647Z,99949.50
2023-12-12T00:52:22.560Z,99942.47
2023-12-12T00:54:49.588Z,99947.69
2023-12-12T00:57:16.250Z,99938.84
2023-12-12T00:59:44.488Z,99940.66
2023-12-12T01:02:11.663Z,99940.56
2023-12-12T01:04:38.380Z,99932.69
2023-12-12T01:07:07.235Z,99945.00
2023-12-12T01:09:33.959Z,99941.41
2023-12-12T01:12:00.637Z,99946.72
2023-12-12T01:14:27.531Z,99942.34
2023-12-12T01:16:54.151Z,99941.50
2023-12-12T01:19:20.927Z,99946.72
2023-12-12T01:21:47.692Z,99945.00
2023-12-12T01:24:14.303Z,99941.41
2023-12-12T01:26:44.062Z,99918.31
2023-12-12T01:29:12.322Z,99936.94
2023-12-12T01:31:39.150Z,99929.91
2023-12-12T01:34:06.365Z,99939.69
2023-12-12T01:36:35.615Z,99940.56
2023-12-12T01:39:02.315Z,99943.22
2023-12-12T01:41:31.680Z,99938.75
2023-12-12T01:43:58.400Z,99938.75
2023-12-12T01:46:25.287Z,99933.41
2023-12-12T01:48:52.116Z,99941.41
2023-12-12T01:51:19.197Z,99943.97
2023-12-12T01:53:49.535Z,99940.37
2023-12-12T01:56:16.249Z,99943.13
2023-12-12T01:58:45.026Z,99943.13
2023-12-12T02:01:11.897Z,99944.84
2023-12-12T02:03:39.339Z,99947.50
2023-12-12T02:06:06.482Z,99938.56
2023-12-12T02:08:33.260Z,99946.53
2023-12-12T02:11:00.374Z,99945.69
2023-12-12T02:13:27.072Z,99951.84
2023-12-12T02:15:53.935Z,99936.00
2023-12-12T02:18:20.789Z,99937.72
2023-12-12T02:20:47.949Z,99942.06
2023-12-12T02:23:14.692Z,99949.94
2023-12-12T02:25:43.587Z,99941.22
2023-12-12T02:28:10.658Z,99937.59
2023-12-12T02:30:37.472Z,99936.66
2023-12-12T02:33:05.826Z,99947.37
2023-12-12T02:35:32.603Z,99945.59
2023-12-12T02:37:59.333Z,99950.06
2023-12-12T02:40:26.080Z,99953.50
2023-12-12T02:42:54.190Z,99957.19
2023-12-12T02:45:20.919Z,99959.66
2023-12-12T02:47:47.794Z,99954.34
2023-12-12T02:50:14.549Z,99945.50
2023-12-12T02:52:44.111Z,99956.16
2023-12-12T02:55:10.899Z,99943.69
2023-12-12T02:57:37.628Z,99937.41
2023-12-12T03:00:12.259Z,99950.72
2023-12-12T03:02:39.003Z,99967.62
2023-12-12T03:05:06.605Z,99962.22
2023-12-12T03:07:33.799Z,99957.75
2023-12-12T03:10:02.128Z,99954.13
2023-12-12T03:12:28.836Z,99948.72
2023-12-12T03:14:55.868Z,99960.41
2023-12-12T03:17:22.512Z,99966.56
2023-12-12T03:19:49.444Z,99962.22
2023-12-12T03:22:16.264Z,99969.34
2023-12-12T03:24:42.965Z,99970.19
2023-12-12T03:27:09.935Z,99963.06
2023-12-12T03:29:36.999Z,99963.06
2023-12-12T03:32:03.913Z,99968.50
2023-12-12T03:34:31.006Z,99972.97
2023-12-12T03:36:57.864Z,99970.19
2023-12-12T03:39:24.605Z,99976.38
2023-12-12T03:41:51.822Z,99963.91
2023-12-12T03:44:21.026Z,99975.50
2023-12-12T03:46:47.666Z,99971.91
2023-12-12T03:49:14.630Z,99983.38
2023-12-12T03:51:41.473Z,99978.91
2023-12-12T03:54:10.252Z,99973.59
2023-12-12T03:56:37.117Z,99982.44
2023-12-12T03:59:06.132Z,99979.88
2023-12-12T04:01:33.022Z,99985.09
2023-12-12T04:03:59.945Z,99991.31
2023-12-12T04:06:26.689Z,99982.53
2023-12-12T04:08:53.627Z,99978.63
2023-12-12T04:11:20.320Z,99988.06
2023-12-12T04:13:47.016Z,99990.47
2023-12-12T04:16:16.119Z,100003.66
2023-12-12T04:18:42.846Z,99999.09
2023-12-12T04:21:12.639Z,100000.66
2023-12-12T04:23:43.981Z,99995.25
2023-12-12T04:26:10.947Z,99993.28
2023-12-12T04:28:38.041Z,99999.19
2023-12-12T04:31:04.873Z,99993.72
2023-12-12T04:33:31.593Z,99997.00
2023-12-12T04:35:58.412Z,99995.81
2023-12-12T04:38:25.237Z,99989.31
2023-12-12T04:40:51.919Z,99992.56
2023-12-12T04:43:18.612Z,100001.91
2023-12-12T04:45:45.292Z,100001.53
2023-12-12T04:48:12.010Z,100003.78
2023-12-12T04:50:38.984Z,100002.44
2023-12-12T04:53:07.768Z,99988.72
2023-12-12T04:55:37.575Z,99997.09
2023-12-12T04:58:04.989Z,99987.75
2023-12-12T05:00:32.070Z,99978.50
2023-12-12T05:02:58.764Z,99990.28
2023-12-12T05:05:25.687Z,99986.16
2023-12-12T05:07:52.630Z,99982.09
2023-12-12T05:10:19.418Z,99993.87
2023-12-12T05:12:46.073Z,99994.19
2023-12-12T05:15:13.804Z,100006.00
2023-12-12T05:17:43.525Z,100016.00
2023-12-12T05:20:12.887Z,100016.31
2023-12-12T05:22:40.262Z,100013.13
2023-12-12T05:25:07.579Z,100022.25
2023-12-12T05:27:34.372Z,100023.37
2023-12-12T05:30:03.928Z,100020.97
2023-12-12T05:32:30.807Z,100019.47
2023-12-12T05:34:57.561Z,100020.72
2023-12-12T05:37:24.214Z,100019.25
2023-12-12T05:39:51.198Z,100017.72
2023-12-12T05:42:17.882Z,100021.44
2023-12-12T05:44:44.563Z,100030.53
2023-12-12T05:47:11.179Z,100032.56
2023-12-12T05:49:38.160Z,100036.41
2023-12-12T05:52:05.563Z,100035.78
2023-12-12T05:54:32.386Z,100037.81
2023-12-12T05:56:59.141Z,100032.75
2023-12-12T05:59:26.037Z,100040.91
2023-12-12T06:01:52.882Z,100049.84
2023-12-12T06:04:19.655Z,100048.34
2023-12-12T06:06:46.437Z,100057.19
2023-12-12T06:09:14.309Z,100065.84
2023-12-12T06:11:43.201Z,100062.91
2023-12-12T06:14:10.252Z,100063.31
2023-12-12T06:16:39.208Z,100074.13
2023-12-12T06:19:06.950Z,100075.09
2023-12-12T06:21:34.450Z,100078.44
2023-12-12T06:24:03.379Z,100085.19
2023-12-12T06:26:31.081Z,100078.78
2023-12-12T06:28:57.754Z,100082.81
2023-12-12T06:31:24.905Z,100077.87
2023-12-12T06:33:52.848Z,100080.87
2023-12-12T06:36:19.589Z,100087.34
2023-12-12T06:38:46.265Z,100082.47
2023-12-12T06:41:12.952Z,100086.97
2023-12-12T06:43:39.836Z,100097.06
2023-12-12T06:46:06.798Z,100091.31
2023-12-12T06:48:33.630Z,100098.03
2023-12-12T06:51:02.488Z,100104.78
2023-12-12T06:53:29.916Z,100102.72
2023-12-12T06:55:56.637Z,100092.41
2023-12-12T06:58:26.240Z,100112.88
2023-12-12T07:00:53.277Z,100111.28
2023-12-12T07:03:20.140Z,100107.38
2023-12-12T07:05:47.065Z,100101.91
2023-12-12T07:08:14.001Z,100105.25
2023-12-12T07:10:41.502Z,100107.56
2023-12-12T07:15:52.514Z,100109.94
2023-12-12T07:18:19.394Z,100111.66
2023-12-12T07:20:46.163Z,100122.22
2023-12-12T07:23:15.280Z,100125.34
2023-12-12T07:25:46.656Z,100127.63
2023-12-12T07:28:13.366Z,100121.28
2023-12-12T07:30:40.508Z,100128.22
2023-12-12T07:33:09.986Z,100118.25
2023-12-12T07:35:36.941Z,100128.78
2023-12-12T07:38:06.369Z,100137.38
2023-12-12T07:40:33.530Z,100130.88
2023-12-12T07:43:00.300Z,100134.50
2023-12-12T07:45:27.101Z,100144.19
2023-12-12T07:47:54.278Z,100137.00
2023-12-12T07:50:22.041Z,100135.19
2023-12-12T07:52:50.128Z,100136.88
2023-12-12T07:55:17.067Z,100148.59
2023-12-12T07:57:43.889Z,100145.72
2023-12-12T08:00:13.814Z,100158.06
2023-12-12T08:02:41.673Z,100163.13
2023-12-12T08:05:11.049Z,100162.19
2023-12-12T08:07:37.895Z,100158.47
2023-12-12T08:10:06.591Z,100165.22
2023-12-12T08:12:33.312Z,100158.66
2023-12-12T08:15:00.043Z,100163.75
2023-12-12T08:17:27.995Z,100156.59
2023-12-12T08:19:55.085Z,100171.59
2023-12-12T08:22:22.504Z,100157.31
2023-12-12T08:24:52.001Z,100152.75
2023-12-12T08:27:21.506Z,100153.44
2023-12-12T08:29:51.373Z,100144.44
2023-12-12T08:32:18.104Z,100133.41
2023-12-12T08:34:44.881Z,100132.28
2023-12-12T08:37:11.795Z,100137.16
2023-12-12T08:39:40.024Z,100140.34
2023-12-12T08:42:07.120Z,100138.25
2023-12-12T08:44:33.872Z,100144.94
2023-12-12T08:47:00.509Z,100139.25
2023-12-12T08:49:28.090Z,100151.25
2023-12-12T08:51:54.905Z,100159.59
2023-12-12T08:54:23.913Z,100159.94
2023-12-12T08:56:54.534Z,100159.56
2023-12-12T08:59:23.898Z,100163.44
2023-12-12T09:01:50.689Z,100163.84
2023-12-12T09:04:18.081Z,100179.06
2023-12-12T09:06:47.751Z,100168.81
2023-12-12T09:09:16.856Z,100170.94
2023-12-12T09:11:46.783Z,100172.13
2023-12-12T09:14:13.500Z,100167.09
2023-12-12T09:16:40.204Z,100171.78
2023-12-12T09:19:07.760Z,100173.81
2023-12-12T09:21:34.605Z,100168.75
2023-12-12T09:24:01.408Z,100165.31
2023-12-12T09:26:50.244Z,100164.62
2023-12-12T09:29:17.615Z,100152.44
2023-12-12T09:31:44.551Z,100151.72
2023-12-12T09:34:11.303Z,100145.78
2023-12-12T09:36:38.028Z,100143.38
2023-12-12T09:39:08.302Z,100147.97
2023-12-12T09:41:37.739Z,100149.88
2023-12-12T09:44:07.912Z,100148.31
2023-12-12T09:46:37.744Z,100152.03
2023-12-12T09:49:07.562Z,100151.31
2023-12-12T09:51:34.555Z,100154.06
2023-12-12T09:54:02.887Z,100148.91
2023-12-12T09:56:29.554Z,100142.91
2023-12-12T09:58:56.211Z,100138.56
2023-12-12T10:01:23.455Z,100136.03
2023-12-12T10:03:50.156Z,100139.63
2023-12-12T10:06:17.094Z,100137.00
2023-12-12T10:08:43.784Z,100137.84
2023-12-12T10:11:11.202Z,100145.56
2023-12-12T10:13:51.925Z,100140.69
2023-12-12T10:16:19.187Z,100127.66
2023-12-12T10:18:49.150Z,100135.69
2023-12-12T10:21:19.364Z,100129.53
2023-12-12T10:23:47.121Z,100138.09
2023-12-12T10:26:15.075Z,100133.25
2023-12-12T10:28:43.158Z,100136.94
2023-12-12T10:31:11.151Z,100120.59
2023-12-12T10:33:39.517Z,100126.91
2023-12-12T10:36:10.226Z,100112.59
2023-12-12T10:38:37.622Z,100121.63
2023-12-12T10:41:30.882Z,100123.34
2023-12-12T10:43:57.798Z,100127.16
2023-12-12T10:46:24.544Z,100108.09
2023-12-12T10:48:54.147Z,100120.22
2023-12-12T10:51:21.236Z,100121.19
2023-12-12T10:53:49.882Z,100121.00
2023-12-12T10:56:16.617Z,100134.03
2023-12-12T10:58:44.092Z,100124.44
2023-12-12T11:01:11.873Z,100122.34
2023-12-12T11:03:42.125Z,100125.69
2023-12-12T11:06:11.939Z,100128.50
2023-12-12T11:08:39.106Z,100130.00
2023-12-12T11:11:14.805Z,100128.09
2023-12-12T11:13:43.079Z,100122.88
2023-12-12T11:16:09.933Z,100115.44
2023-12-12T11:18:43.897Z,100130.62
2023-12-12T11:21:43.234Z,100120.38
2023-12-12T11:24:09.894Z,100122.34
2023-12-12T11:26:37.068Z,100126.34
2023-12-12T11:29:08.982Z,100124.97
2023-12-12T11:31:36.149Z,100122.69
2023-12-12T11:34:12.457Z,100122.50
2023-12-12T11:36:51.794Z,100120.59
2023-12-12T11:39:38.688Z,100120.19
2023-12-12T11:42:07.415Z,100110.47
2023-12-12T11:44:44.228Z,100114.09
2023-12-12T11:49:41.505Z,100104.97
2023-12-12T11:52:08.650Z,100119.03
2023-12-12T11:54:35.531Z,100097.81
2023-12-12T11:57:02.437Z,100108.28
2023-12-12T11:59:29.945Z,100106.66
2023-12-12T12:01:56.766Z,100104.78
2023-12-12T12:04:23.537Z,100103.81
2023-12-12T12:06:51.075Z,100099.44
2023-12-12T12:09:18.113Z,100092.03
2023-12-12T12:11:53.135Z,100095.09
2023-12-12T12:14:25.925Z,100092.28
2023-12-12T12:16:57.531Z,100086.88
2023-12-12T12:19:27.280Z,100084.91
2023-12-12T12:21:54.097Z,100088.50
2023-12-12T12:24:23.317Z,100082.97
2023-12-12T12:26:50.122Z,100082.06
2023-12-12T12:29:16.764Z,100087.44
2023-12-12T12:31:43.713Z,100091.91
2023-12-12T12:34:18.513Z,100086.38
2023-12-12T12:36:47.747Z,100085.34
2023-12-12T12:39:17.738Z,100081.72
2023-12-12T12:41:48.450Z,100083.31
2023-12-12T12:44:15.271Z,100077.72
2023-12-12T12:46:52.034Z,100089.84
2023-12-12T12:49:19.153Z,100079.84
2023-12-12T12:51:49.398Z,100086.50
2023-12-12T12:54:18.822Z,100081.72
2023-12-12T12:56:48.075Z,100081.31
2023-12-12T12:59:19.276Z,100074.78
2023-12-12T13:01:46.843Z,100064.59
2023-12-12T13:04:13.927Z,100060.56
2023-12-12T13:06:43.065Z,100063.66
2023-12-12T13:09:11.217Z,100063.97
2023-12-12T13:11:39.595Z,100061.66
2023-12-12T13:14:07.125Z,100056.69
2023-12-12T13:16:34.081Z,100047.41
2023-12-12T13:19:01.045Z,100046.78
2023-12-12T13:21:27.959Z,100043.59
2023-12-12T13:23:55.355Z,100039.47
2023-12-12T13:26:25.044Z,100045.22
2023-12-12T13:28:53.413Z,100053.41
2023-12-12T13:31:22.178Z,100047.50
2023-12-12T13:33:49.562Z,100050.37
2023-12-12T13:36:16.610Z,100057.78
2023-12-12T13:38:43.469Z,100065.22
2023-12-12T13:41:10.472Z,100062.78
2023-12-12T13:43:37.352Z,100071.06
2023-12-12T13:46:04.880Z,100067.81
2023-12-12T13:48:31.737Z,100073.34
2023-12-12T13:50:58.635Z,100086.81
2023-12-12T13:53:25.824Z,100084.28
2023-12-12T13:55:53.940Z,100094.34
2023-12-12T13:58:23.485Z,100083.97
2023-12-12T14:00:50.359Z,100093.84
2023-12-12T14:03:18.840Z,100101.09
2023-12-12T14:05:45.800Z,100102.25
2023-12-12T14:08:12.949Z,100097.09
2023-12-12T14:10:39.825Z,100098.81
2023-12-12T14:13:06.479Z,100105.59
2023-12-12T14:15:33.159Z,100100.78
2023-12-12T14:18:00.658Z,100094.03
2023-12-12T14:20:27.699Z,100091.56
2023-12-12T14:23:01.578Z,100087.19
2023-12-12T14:25:34.561Z,100091.37
2023-12-12T14:28:01.316Z,100100.59
2023-12-12T14:30:28.527Z,100098.31
2023-12-12T14:32:57.043Z,100100.31
2023-12-12T14:35:23.929Z,100098.81
2023-12-12T14:37:50.634Z,100091.91
2023-12-12T14:40:17.302Z,100086.19
2023-12-12T14:42:44.106Z,100085.19
2023-12-12T14:45:11.952Z,100080.00
2023-12-12T14:47:39.875Z,100076.88
2023-12-12T14:50:08.733Z,100081.75
2023-12-12T14:52:35.927Z,100085.06
2023-12-12T14:55:02.903Z,100090.09
2023-12-12T14:57:29.614Z,100067.56
2023-12-12T14:59:56.610Z,100068.91
2023-12-12T15:02:23.548Z,100065.28
2023-12-12T15:04:50.739Z,100063.19
2023-12-12T15:07:17.463Z,100059.59
2023-12-12T15:09:44.097Z,100053.22
2023-12-12T15:12:10.790Z,100066.41
2023-12-12T15:14:37.610Z,100049.53
2023-12-12T15:17:04.458Z,100040.75
2023-12-12T15:19:31.313Z,100042.47
2023-12-12T15:21:57.986Z,100043.97
2023-12-12T15:24:24.709Z,100041.84
2023-12-12T15:26:51.431Z,100030.78
2023-12-12T15:29:18.129Z,100027.63
2023-12-12T15:31:47.772Z,100031.59
2023-12-12T15:34:14.604Z,100027.78
2023-12-12T15:36:41.387Z,100022.25
2023-12-12T15:39:08.057Z,100024.25
2023-12-12T15:41:37.245Z,100029.38
2023-12-12T15:44:04.911Z,100040.03
2023-12-12T15:46:31.856Z,100025.84
2023-12-12T15:48:59.212Z,100024.16
2023-12-12T15:51:28.283Z,100033.78
2023-12-12T15:53:56.332Z,100043.56
2023-12-12T15:56:25.660Z,100034.63
2023-12-12T15:58:55.194Z,100025.66
2023-12-12T16:01:22.288Z,100020.34
2023-12-12T16:03:52.100Z,100024.69
2023-12-12T16:06:19.681Z,100025.78
2023-12-12T16:08:47.115Z,100033.97
2023-12-12T16:11:13.807Z,100031.59
2023-12-12T16:13:40.609Z,100020.69
2023-12-12T16:16:07.857Z,100012.63
2023-12-12T16:18:35.596Z,100019.69
2023-12-12T16:21:02.256Z,100009.78
2023-12-12T16:23:28.875Z,100012.38
2023-12-12T16:25:55.554Z,100015.81
2023-12-12T16:28:22.301Z,100009.44
2023-12-12T16:30:49.054Z,100017.97
2023-12-12T16:33:15.784Z,100022.28
2023-12-12T16:35:42.825Z,100033.50
2023-12-12T16:38:16.764Z,100030.50
2023-12-12T16:40:43.556Z,100039.12
2023-12-12T16:43:10.324Z,100035.31
2023-12-12T16:45:37.967Z,100032.25
2023-12-12T16:48:05.331Z,100030.13
2023-12-12T16:50:32.807Z,100012.94
2023-12-12T16:52:59.866Z,100013.25
2023-12-12T16:55:26.684Z,100023.47
2023-12-12T16:57:53.784Z,100030.06
2023-12-12T17:00:20.642Z,100022.50
2023-12-12T17:02:49.450Z,100013.19
2023-12-12T17:05:16.245Z,100010.91
2023-12-12T17:07:43.378Z,99998.91
2023-12-12T17:10:10.748Z,99998.41
2023-12-12T17:12:37.984Z,99993.50
2023-12-12T17:15:07.853Z,99984.94
2023-12-12T17:17:37.248Z,100000.44
2023-12-12T17:20:04.547Z,100003.41
2023-12-12T17:22:31.454Z,99997.47
2023-12-12T17:24:58.362Z,99985.50
2023-12-12T17:27:27.776Z,99985.81
2023-12-12T17:29:57.318Z,99976.41
2023-12-12T17:32:24.085Z,99984.69
2023-12-12T17:34:51.178Z,99993.84
2023-12-12T17:37:17.869Z,99983.53
2023-12-12T17:39:44.590Z,99967.97
2023-12-12T17:42:11.430Z,99969.16
2023-12-12T17:44:38.161Z,99977.34
2023-12-12T17:47:05.180Z,99985.56
2023-12-12T17:49:32.006Z,99982.28
2023-12-12T17:52:01.222Z,99979.97
2023-12-12T17:54:27.907Z,99982.81
2023-12-12T17:56:54.619Z,99991.00
2023-12-12T17:59:21.406Z,99991.25
2023-12-12T18:01:48.217Z,99999.41
2023-12-12T18:04:15.438Z,99997.00
2023-12-12T18:06:42.368Z,100006.13
2023-12-12T18:09:09.146Z,100010.72
2023-12-12T18:11:36.046Z,99995.59
2023-12-12T18:14:04.081Z,99984.75
2023-12-12T18:16:30.909Z,99977.19
2023-12-12T18:18:57.794Z,99981.94
2023-12-12T18:21:24.578Z,99980.34
2023-12-12T18:23:51.250Z,99979.44
2023-12-12T18:26:18.101Z,99969.56
2023-12-12T18:28:48.470Z,99968.31
2023-12-12T18:31:16.033Z,99958.94
2023-12-12T18:33:43.483Z,99958.19
2023-12-12T18:36:10.601Z,99961.91
2023-12-12T18:38:37.578Z,99963.09
2023-12-12T18:41:07.229Z,99959.12
2023-12-12T18:43:34.209Z,99963.41
2023-12-12T18:46:00.855Z,99958.28
2023-12-12T18:48:27.705Z,99948.81
2023-12-12T18:50:54.392Z,99941.22
2023-12-12T18:53:21.092Z,99944.44
2023-12-12T18:55:47.784Z,99948.50
2023-12-12T18:58:14.757Z,99942.72
2023-12-12T19:00:42.550Z,99933.09
2023-12-12T19:03:09.242Z,99930.78
2023-12-12T19:05:36.233Z,99935.81
2023-12-12T19:08:03.339Z,99923.25
2023-12-12T19:10:31.376Z,99918.03
2023-12-12T19:12:59.655Z,99918.53
2023-12-12T19:15:26.415Z,99921.69
2023-12-12T19:17:54.157Z,99924.19
2023-12-12T19:20:21.953Z,99944.34
2023-12-12T19:22:48.935Z,99936.19
2023-12-12T19:25:15.763Z,99934.16
2023-12-12T19:27:42.507Z,99925.81
2023-12-12T19:30:10.602Z,99915.75
2023-12-12T19:32:39.028Z,99904.53
2023-12-12T19:35:07.943Z,99910.25
2023-12-12T19:37:35.498Z,99902.53
2023-12-12T19:40:06.688Z,99911.38
2023-12-12T19:42:34.780Z,99904.34
2023-12-12T19:45:04.955Z,99892.66
2023-12-12T19:47:31.981Z,99890.78
2023-12-12T19:50:02.309Z,99871.13
2023-12-12T19:52:32.476Z,99876.31
2023-12-12T19:54:59.419Z,99875.28
2023-12-12T19:57:26.081Z,99882.25
2023-12-12T19:59:52.721Z,99885.66
2023-12-12T20:02:19.444Z,99877.56
2023-12-12T20:04:46.191Z,99882.88
2023-12-12T20:07:14.710Z,99876.63
2023-12-12T20:09:42.884Z,99888.19
2023-12-12T20:12:10.452Z,99876.91
2023-12-12T20:14:38.222Z,99882.31
2023-12-12T20:17:08.087Z,99882.41
2023-12-12T20:19:35.146Z,99891.34
2023-12-12T20:22:02.003Z,99873.78
2023-12-12T20:24:29.439Z,99852.59
2023-12-12T20:26:56.219Z,99831.25
2023-12-12T20:29:22.989Z,99813.69
2023-12-12T20:31:49.888Z,99825.25
2023-12-12T20:34:16.770Z,99832.47
2023-12-12T20:36:43.440Z,99836.94
2023-12-12T20:39:12.049Z,99823.66
2023-12-12T20:41:38.771Z,99821.00
2023-12-12T20:44:06.395Z,99811.31
2023-12-12T20:46:34.824Z,99808.66
2023-12-12T20:49:01.526Z,99805.16
2023-12-12T20:51:31.079Z,99793.66
2023-12-12T20:53:57.936Z,99800.69
2023-12-12T20:56:24.696Z,99808.66
2023-12-12T20:58:51.385Z,99799.84
2023-12-12T21:01:18.167Z,99804.28
2023-12-12T21:03:44.917Z,99809.59
2023-12-12T21:06:11.650Z,99822.03
2023-12-12T21:08:38.343Z,99810.53
2023-12-12T21:11:11.536Z,99813.13
2023-12-12T21:13:38.186Z,99815.88
2023-12-12T21:16:17.843Z,99822.88
2023-12-12T21:18:44.750Z,99807.88
2023-12-12T21:21:11.415Z,99793.75
2023-12-12T21:23:38.132Z,99793.75
2023-12-12T21:26:05.033Z,99801.72
2023-12-12T21:28:31.990Z,99796.41
2023-12-12T21:30:59.007Z,99783.12
2023-12-12T21:33:25.841Z,99779.59
2023-12-12T21:35:52.697Z,99777.81
2023-12-12T21:38:19.674Z,99774.19
2023-12-12T21:40:46.827Z,99767.16
2023-12-12T21:43:13.610Z,99758.34
2023-12-12T21:45:40.303Z,99761.97
2023-12-12T21:48:07.226Z,99761.12
2023-12-12T21:50:34.256Z,99764.63
2023-12-12T21:53:00.971Z,99767.28
2023-12-12T21:55:27.666Z,99775.25
2023-12-12T21:57:54.555Z,99768.12
2023-12-12T22:00:26.017Z,99771.63
2023-12-12T22:02:52.800Z,99771.63
2023-12-12T22:05:19.629Z,99768.12
2023-12-12T22:07:46.412Z,99779.59
2023-12-12T22:10:13.241Z,99769.94
2023-12-12T22:12:41.020Z,99767.28
2023-12-12T22:15:08.736Z,99759.31
2023-12-12T22:17:35.847Z,99751.34
2023-12-12T22:20:06.995Z,99751.22
2023-12-12T22:22:34.228Z,99754.00
2023-12-12T22:25:01.017Z,99747.72
2023-12-12T22:27:27.690Z,99746.75
2023-12-12T22:29:54.563Z,99742.41
2023-12-12T22:32:21.210Z,99731.78
2023-12-12T22:34:48.157Z,99735.38
2023-12-12T22:37:14.933Z,99718.47
2023-12-12T22:39:41.717Z,99719.44
2023-12-12T22:42:08.423Z,99715.81
2023-12-12T22:44:35.442Z,99708.81
2023-12-12T22:47:02.418Z,99701.69
2023-12-12T22:49:29.283Z,99697.31
2023-12-12T22:51:58.683Z,99702.53
2023-12-12T22:54:25.496Z,99689.25
2023-12-12T22:56:53.772Z,99685.62
2023-12-12T22:59:20.503Z,99680.31
2023-12-12T23:01:47.226Z,99684.78
2023-12-12T23:04:14.055Z,99685.62
2023-12-12T23:06:40.911Z,99686.47
2023-12-12T23:09:12.332Z,99679.34
2023-12-12T23:11:39.030Z,99663.50
2023-12-12T23:14:08.874Z,99655.53
2023-12-12T23:16:38.052Z,99644.91
2023-12-12T23:19:04.790Z,99622.81
2023-12-12T23:21:32.376Z,99620.13
2023-12-12T23:23:59.216Z,99615.69
2023-12-12T23:26:26.813Z,99613.88
2023-12-12T23:28:53.697Z,99618.34
2023-12-12T23:31:20.520Z,99613.88
2023-12-12T23:33:47.420Z,99619.19
2023-12-12T23:36:14.237Z,99613.88
2023-12-12T23:38:40.931Z,99609.41
2023-12-12T23:41:08.057Z,99593.44
2023-12-12T23:43:35.881Z,99581.00
2023-12-12T23:46:02.591Z,99592.59
2023-12-12T23:48:30.357Z,99588.97
2023-12-12T23:50:57.247Z,99579.31
2023-12-12T23:53:26.604Z,99578.28
2023-12-12T23:55:55.542Z,99579.13
2023-12-12T23:58:25.469Z,99580.81
